Time;durP1;ratioP1;P1;durP2;ratioP2;P2;SDS_P1;SDS_P2;PMS_P1;PMS_P2;Temp;Humidity;BMP_temperature;BMP_pressure;BME280_temperature;BME280_humidity;BME280_pressure;Samples;Min_cycle;Max_cycle;Signal;HPM_P1;HPM_P2
2022/08/16 00:00:24;;;;;;;5.35;4.88;;;25.90;99.90;;;;;;1043714;28;20020;-66
2022/08/16 00:00:55;;;;;;;5.60;5.10;;;25.90;99.90;;;;;;1043406;28;20032;-65
2022/08/16 00:01:25;;;;;;;5.57;4.63;;;25.90;99.90;;;;;;1043670;28;20111;-65
2022/08/16 00:01:56;;;;;;;6.00;5.07;;;25.90;99.90;;;;;;1043460;28;20034;-67
2022/08/16 00:02:27;;;;;;;5.60;4.80;;;25.90;99.90;;;;;;1043648;28;20017;-67
2022/08/16 00:02:57;;;;;;;6.57;5.10;;;25.90;99.90;;;;;;1043581;28;20048;-67
2022/08/16 00:03:28;;;;;;;5.10;4.60;;;25.90;99.90;;;;;;1043439;28;20020;-67
2022/08/16 00:03:58;;;;;;;6.37;5.23;;;25.90;99.90;;;;;;1043572;28;20079;-67
2022/08/16 00:04:29;;;;;;;5.00;4.60;;;25.90;99.90;;;;;;1043552;28;20091;-66
2022/08/16 00:05:01;;;;;;;4.97;4.47;;;25.90;99.90;;;;;;1043504;28;20017;-67
2022/08/16 00:05:32;;;;;;;6.10;5.20;;;25.90;99.90;;;;;;1043399;28;20017;-65
2022/08/16 00:06:03;;;;;;;4.33;3.93;;;25.90;99.90;;;;;;1043631;28;20094;-66
2022/08/16 00:06:33;;;;;;;5.53;4.93;;;25.90;99.90;;;;;;1043451;28;20433;-66
2022/08/16 00:07:04;;;;;;;5.33;4.80;;;25.90;99.90;;;;;;1043229;28;20014;-66
2022/08/16 00:07:35;;;;;;;4.90;4.40;;;25.90;99.90;;;;;;1043141;28;20021;-67
2022/08/16 00:08:05;;;;;;;5.35;4.75;;;25.90;99.90;;;;;;1043402;28;20009;-67
2022/08/16 00:08:37;;;;;;;4.87;4.40;;;25.90;99.90;;;;;;1043093;28;20020;-67
2022/08/16 00:09:09;;;;;;;4.63;4.22;;;25.90;99.90;;;;;;1043704;28;20449;-66
2022/08/16 00:09:39;;;;;;;5.15;4.65;;;25.90;99.90;;;;;;1043467;28;20009;-66
2022/08/16 00:10:12;;;;;;;5.27;4.73;;;25.90;99.90;;;;;;1043721;28;20029;-65
2022/08/16 00:10:43;;;;;;;5.75;4.93;;;25.90;99.90;;;;;;1043238;28;20028;-65
2022/08/16 00:11:14;;;;;;;5.53;5.07;;;25.90;99.90;;;;;;1043790;28;20037;-65
2022/08/16 00:11:46;;;;;;;5.47;4.80;;;25.90;99.90;;;;;;1043268;28;20025;-65
2022/08/16 00:12:17;;;;;;;5.28;4.88;;;25.90;99.90;;;;;;1043724;28;20515;-65
2022/08/16 00:12:48;;;;;;;5.83;5.33;;;25.90;99.90;;;;;;1043072;28;20510;-66
2022/08/16 00:13:19;;;;;;;5.90;5.38;;;25.90;99.90;;;;;;1043874;28;20650;-67
2022/08/16 00:13:50;;;;;;;6.87;5.53;;;25.80;99.90;;;;;;1043322;28;20654;-67
2022/08/16 00:14:26;;;;;;;5.57;4.55;;;25.80;99.90;;;;;;1043784;28;20119;-67
2022/08/16 00:14:59;;;;;;;4.95;4.50;;;25.90;99.90;;;;;;1043336;28;20031;-67
2022/08/16 00:15:36;;;;;;;5.60;5.07;;;25.90;99.90;;;;;;1043637;28;20480;-67
2022/08/16 00:16:07;;;;;;;6.05;4.68;;;25.80;99.90;;;;;;1043545;28;20072;-65
2022/08/16 00:16:38;;;;;;;6.23;4.87;;;25.80;99.90;;;;;;1043663;28;20460;-67
2022/08/16 00:17:09;;;;;;;5.13;4.70;;;25.90;99.90;;;;;;1043471;28;20020;-67
2022/08/16 00:17:40;;;;;;;5.83;4.83;;;25.80;99.90;;;;;;1043691;28;20087;-65
2022/08/16 00:18:12;;;;;;;5.32;4.85;;;25.80;99.90;;;;;;1043577;28;20024;-66
2022/08/16 00:18:42;;;;;;;6.35;5.25;;;25.80;99.90;;;;;;1043368;28;20392;-66
2022/08/16 00:19:16;;;;;;;5.23;4.70;;;25.80;99.90;;;;;;1043582;28;20476;-67
2022/08/16 00:19:47;;;;;;;5.25;4.75;;;25.80;99.90;;;;;;1043340;28;20052;-66
2022/08/16 00:20:17;;;;;;;6.00;4.90;;;25.80;99.90;;;;;;1043571;28;20017;-67
2022/08/16 00:20:48;;;;;;;5.83;5.30;;;25.80;99.90;;;;;;1043444;28;20032;-67
2022/08/16 00:21:19;;;;;;;5.23;4.73;;;25.80;99.90;;;;;;1043578;28;20808;-65
2022/08/16 00:21:51;;;;;;;5.07;4.57;;;25.80;99.90;;;;;;1043529;28;20437;-67
2022/08/16 00:22:25;;;;;;;5.22;4.72;;;25.80;99.90;;;;;;1043677;28;20017;-66
2022/08/16 00:22:55;;;;;;;5.43;4.93;;;25.80;99.90;;;;;;1043323;28;20028;-65
2022/08/16 00:23:26;;;;;;;5.80;5.13;;;;;;;;;;1043573;28;20029;-66
2022/08/16 00:23:57;;;;;;;5.15;4.65;;;25.80;99.90;;;;;;1043463;28;20465;-67
2022/08/16 00:24:28;;;;;;;5.70;5.07;;;25.80;99.90;;;;;;1043470;28;20444;-67
2022/08/16 00:24:59;;;;;;;5.80;5.30;;;25.80;99.90;;;;;;1039353;28;20428;-65
2022/08/16 00:25:30;;;;;;;6.07;5.33;;;25.80;99.90;;;;;;1039220;28;20465;-65
2022/08/16 00:26:00;;;;;;;5.68;5.15;;;25.80;99.90;;;;;;1039431;28;20030;-65
2022/08/16 00:26:31;;;;;;;5.03;4.40;;;25.80;99.90;;;;;;1039335;28;20026;-66
2022/08/16 00:27:03;;;;;;;5.23;4.83;;;25.80;99.90;;;;;;1039395;28;20752;-65
2022/08/16 00:27:33;;;;;;;5.40;4.90;;;25.80;99.90;;;;;;1039443;28;20025;-65
2022/08/16 00:28:05;;;;;;;6.43;5.07;;;25.80;99.90;;;;;;1039495;28;20090;-65
2022/08/16 00:28:36;;;;;;;5.80;5.20;;;25.70;99.90;;;;;;1039292;28;20033;-66
2022/08/16 00:29:06;;;;;;;5.27;4.43;;;25.70;99.90;;;;;;1039306;28;20025;-66
2022/08/16 00:29:37;;;;;;;4.93;4.53;;;25.80;99.90;;;;;;1039330;28;20079;-65
2022/08/16 00:30:10;;;;;;;6.07;5.47;;;25.70;99.90;;;;;;1039495;28;20075;-66
2022/08/16 00:30:41;;;;;;;8.40;5.00;;;25.70;99.90;;;;;;1039328;28;20022;-65
2022/08/16 00:31:11;;;;;;;5.43;4.47;;;25.70;99.90;;;;;;1039188;28;20378;-65
2022/08/16 00:31:48;;;;;;;6.00;4.90;;;25.70;99.90;;;;;;1039127;28;20362;-66
2022/08/16 00:32:22;;;;;;;5.30;4.80;;;25.70;99.90;;;;;;1039340;28;20450;-66
2022/08/16 00:32:54;;;;;;;5.78;5.20;;;25.70;99.90;;;;;;1039274;28;20053;-66
2022/08/16 00:33:25;;;;;;;4.95;4.53;;;25.70;99.90;;;;;;1039413;28;20067;-66
2022/08/16 00:33:55;;;;;;;5.47;4.87;;;25.70;99.90;;;;;;1038879;28;20028;-66
2022/08/16 00:34:26;;;;;;;7.93;5.13;;;25.70;99.90;;;;;;1039253;28;20017;-65
2022/08/16 00:34:56;;;;;;;7.13;5.10;;;25.70;99.90;;;;;;1038828;28;20030;-66
2022/08/16 00:35:34;;;;;;;5.83;5.20;;;25.70;99.90;;;;;;1039074;28;20021;-66
2022/08/16 00:36:05;;;;;;;5.72;5.18;;;25.70;99.90;;;;;;1039379;28;20017;-66
2022/08/16 00:36:36;;;;;;;4.68;4.28;;;25.70;99.90;;;;;;1039291;28;20024;-66
2022/08/16 00:37:06;;;;;;;5.70;4.97;;;25.70;99.90;;;;;;1039323;28;20150;-66
2022/08/16 00:37:37;;;;;;;5.77;5.27;;;25.70;99.90;;;;;;1039485;28;20026;-65
2022/08/16 00:38:08;;;;;;;5.67;5.17;;;25.70;99.90;;;;;;1039296;28;20021;-66
2022/08/16 00:38:39;;;;;;;5.17;4.77;;;25.70;99.90;;;;;;1039440;28;20022;-66
2022/08/16 00:39:09;;;;;;;5.80;5.30;;;25.70;99.90;;;;;;1040387;28;20376;-66
2022/08/16 00:39:40;;;;;;;5.27;4.77;;;25.70;99.90;;;;;;1043452;28;20552;-66
2022/08/16 00:40:16;;;;;;;7.67;5.20;;;25.70;99.90;;;;;;1043422;28;20472;-66
2022/08/16 00:40:50;;;;;;;5.25;4.75;;;25.70;99.90;;;;;;1043202;28;20036;-66
2022/08/16 00:41:21;;;;;;;6.15;5.40;;;25.70;99.90;;;;;;1043637;28;20017;-66
2022/08/16 00:41:52;;;;;;;5.60;5.10;;;25.60;99.90;;;;;;1043369;28;20123;-66
2022/08/16 00:42:23;;;;;;;5.83;5.03;;;25.60;99.90;;;;;;1043494;28;20111;-66
2022/08/16 00:42:53;;;;;;;5.70;4.70;;;25.60;99.90;;;;;;1043383;28;20049;-66
2022/08/16 00:43:29;;;;;;;5.50;4.77;;;25.70;99.90;;;;;;1042967;28;20025;-66
2022/08/16 00:44:09;;;;;;;5.65;5.13;;;25.70;99.90;;;;;;1039205;28;20528;-66
2022/08/16 00:44:53;;;;;;;6.40;5.10;;;25.70;99.90;;;;;;1039399;28;20051;-66
2022/08/16 00:45:38;;;;;;;5.30;4.80;;;25.70;99.90;;;;;;1039305;28;20376;-66
2022/08/16 00:46:21;;;;;;;5.53;5.03;;;25.60;99.90;;;;;;1039319;28;20025;-66
2022/08/16 00:47:00;;;;;;;5.68;4.75;;;25.60;99.90;;;;;;1041184;28;20033;-66
2022/08/16 00:47:30;;;;;;;5.45;4.38;;;25.60;99.90;;;;;;1043319;28;20524;-66
2022/08/16 00:48:08;;;;;;;5.10;4.50;;;25.60;99.90;;;;;;1043441;28;20514;-66
2022/08/16 00:48:41;;;;;;;5.15;4.70;;;25.60;99.90;;;;;;1043377;28;20060;-66
2022/08/16 00:49:13;;;;;;;5.65;4.90;;;25.60;99.90;;;;;;1043403;28;20059;-66
2022/08/16 00:49:44;;;;;;;6.95;4.75;;;25.60;99.90;;;;;;1043256;28;20017;-66
2022/08/16 00:50:16;;;;;;;5.50;5.00;;;25.60;99.90;;;;;;1043442;28;20033;-66
2022/08/16 00:50:46;;;;;;;5.35;4.80;;;25.60;99.90;;;;;;1043212;28;20107;-66
2022/08/16 00:51:19;;;;;;;5.03;4.53;;;25.60;99.90;;;;;;1043607;28;20355;-66
2022/08/16 00:51:51;;;;;;;5.28;4.78;;;25.60;99.90;;;;;;1043102;28;20052;-66
2022/08/16 00:52:21;;;;;;;6.15;5.35;;;25.60;99.90;;;;;;1043454;28;20040;-66
2022/08/16 00:52:52;;;;;;;5.30;4.80;;;25.60;99.90;;;;;;1042742;28;20052;-66
2022/08/16 00:53:23;;;;;;;6.63;4.63;;;25.60;99.90;;;;;;1043174;28;20697;-66
2022/08/16 00:53:54;;;;;;;6.93;5.00;;;25.50;99.90;;;;;;1042909;28;20021;-66
2022/08/16 00:54:28;;;;;;;5.07;4.63;;;25.60;99.90;;;;;;1041258;28;20024;-66
2022/08/16 00:54:59;;;;;;;4.70;4.30;;;25.60;99.90;;;;;;1038761;28;20661;-66
2022/08/16 00:55:30;;;;;;;5.40;4.90;;;25.60;99.90;;;;;;1039075;28;20169;-66
2022/08/16 00:56:07;;;;;;;5.83;5.23;;;25.60;99.90;;;;;;1038807;28;20690;-66
2022/08/16 00:56:41;;;;;;;5.05;4.55;;;25.60;99.90;;;;;;1038986;28;20612;-66
2022/08/16 00:57:12;;;;;;;5.50;4.97;;;25.50;99.90;;;;;;1039092;28;20060;-67
2022/08/16 00:57:43;;;;;;;5.70;5.13;;;25.50;99.90;;;;;;1039154;28;20477;-66
2022/08/16 00:58:16;;;;;;;5.17;4.73;;;25.50;99.90;;;;;;1039377;28;20500;-66
2022/08/16 00:58:47;;;;;;;5.45;4.60;;;25.50;99.90;;;;;;1039027;28;20014;-66
2022/08/16 00:59:21;;;;;;;5.47;4.97;;;25.50;99.90;;;;;;1039425;28;20067;-66
2022/08/16 00:59:52;;;;;;;4.70;4.30;;;25.50;99.90;;;;;;1038945;28;20705;-66
2022/08/16 01:00:27;;;;;;;5.43;4.93;;;25.50;99.90;;;;;;1039335;28;20810;-66
2022/08/16 01:00:58;;;;;;;5.20;4.65;;;25.50;99.90;;;;;;1039099;28;20026;-66
2022/08/16 01:01:28;;;;;;;5.10;4.27;;;25.50;99.90;;;;;;1039286;28;20022;-66
2022/08/16 01:02:00;;;;;;;4.73;4.33;;;25.50;99.90;;;;;;1039238;28;20596;-66
2022/08/16 01:02:31;;;;;;;5.20;4.70;;;25.50;99.90;;;;;;1039302;28;20477;-66
2022/08/16 01:03:06;;;;;;;6.53;4.40;;;25.50;99.90;;;;;;1039089;28;20545;-66
2022/08/16 01:03:40;;;;;;;6.47;4.55;;;25.50;99.90;;;;;;1039320;28;20101;-66
2022/08/16 01:04:12;;;;;;;5.68;4.28;;;25.50;99.90;;;;;;1039209;28;20083;-66
2022/08/16 01:04:43;;;;;;;6.10;5.25;;;25.50;99.90;;;;;;1039192;28;20061;-65
2022/08/16 01:05:13;;;;;;;5.60;5.03;;;25.50;99.90;;;;;;1039188;28;20021;-66
2022/08/16 01:05:46;;;;;;;4.57;4.17;;;25.50;99.90;;;;;;1039267;28;20048;-66
2022/08/16 01:06:17;;;;;;;6.03;5.43;;;25.50;99.90;;;;;;1039320;28;20238;-66
2022/08/16 01:06:49;;;;;;;5.38;4.88;;;25.50;99.90;;;;;;1039187;28;20028;-66
2022/08/16 01:07:19;;;;;;;5.93;4.80;;;25.50;99.90;;;;;;1039271;28;20049;-66
2022/08/16 01:07:51;;;;;;;4.90;4.40;;;25.50;99.90;;;;;;1039179;28;20014;-66
2022/08/16 01:08:23;;;;;;;5.22;4.75;;;25.50;99.90;;;;;;1039277;28;20021;-66
2022/08/16 01:08:55;;;;;;;7.07;5.00;;;25.40;99.90;;;;;;1042816;28;20110;-66
2022/08/16 01:09:26;;;;;;;5.10;4.53;;;25.50;99.90;;;;;;1043243;28;20660;-66
2022/08/16 01:09:56;;;;;;;5.27;4.50;;;25.40;99.90;;;;;;1043446;28;20476;-66
2022/08/16 01:10:30;;;;;;;5.97;4.90;;;25.40;99.90;;;;;;1043080;28;20013;-66
2022/08/16 01:11:02;;;;;;;5.32;4.57;;;25.50;99.90;;;;;;1042831;28;20025;-66
2022/08/16 01:11:35;;;;;;;5.47;4.97;;;25.40;99.90;;;;;;1043047;28;20063;-66
2022/08/16 01:12:08;;;;;;;4.97;4.55;;;25.50;99.90;;;;;;1043031;28;20033;-66
2022/08/16 01:12:38;;;;;;;5.10;4.60;;;25.50;99.90;;;;;;1043130;28;20017;-66
2022/08/16 01:13:13;;;;;;;6.30;5.70;;;25.40;99.90;;;;;;1043487;28;20052;-67
2022/08/16 01:13:45;;;;;;;5.15;4.65;;;25.50;99.90;;;;;;1043127;28;20070;-66
2022/08/16 01:14:25;;;;;;;5.70;4.75;;;25.40;99.90;;;;;;1043498;28;20026;-66
2022/08/16 01:14:58;;;;;;;5.45;4.68;;;25.40;99.90;;;;;;1043154;28;20017;-66
2022/08/16 01:15:29;;;;;;;4.68;4.20;;;25.50;99.90;;;;;;1043286;28;20028;-66
2022/08/16 01:16:04;;;;;;;5.60;5.07;;;25.40;99.90;;;;;;1043195;28;20029;-66
2022/08/16 01:16:36;;;;;;;5.10;4.70;;;25.40;99.90;;;;;;1043301;28;20070;-66
2022/08/16 01:17:08;;;;;;;4.95;4.45;;;25.40;99.90;;;;;;1043135;28;20028;-67
2022/08/16 01:17:41;;;;;;;5.70;5.20;;;25.40;99.90;;;;;;1043367;28;20391;-66
2022/08/16 01:18:16;;;;;;;5.95;4.57;;;25.40;99.90;;;;;;1043217;28;20020;-66
2022/08/16 01:18:57;;;;;;;5.38;4.68;;;25.40;99.90;;;;;;1043089;28;20028;-66
2022/08/16 01:19:42;;;;;;;5.07;4.68;;;25.40;99.90;;;;;;1043519;28;20029;-67
2022/08/16 01:20:15;;;;;;;5.95;5.30;;;25.40;99.90;;;;;;1043415;28;20096;-67
2022/08/16 01:21:08;;;;;;;5.72;4.90;;;25.40;99.90;;;;;;1043066;28;20032;-66
2022/08/16 01:21:57;;;;;;;5.72;5.25;;;25.40;99.90;;;;;;1043414;28;20013;-67
2022/08/16 01:22:40;;;;;;;6.75;4.80;;;25.40;99.90;;;;;;1043014;28;20021;-66
2022/08/16 01:23:27;;;;;;;5.70;5.20;;;25.40;99.90;;;;;;1042612;28;20036;-67
2022/08/16 01:24:24;;;;;;;4.80;4.28;;;25.40;99.90;;;;;;1042995;28;20560;-67
2022/08/16 01:25:01;;;;;;;5.10;4.60;;;25.40;99.90;;;;;;1043273;28;20765;-67
2022/08/16 01:25:36;;;;;;;4.97;4.57;;;25.40;99.90;;;;;;1043375;28;20013;-67
2022/08/16 01:26:06;;;;;;;7.93;5.13;;;25.40;99.90;;;;;;1043140;28;20147;-65
2022/08/16 01:26:39;;;;;;;4.83;4.40;;;25.40;99.90;;;;;;1043285;28;20551;-67
2022/08/16 01:27:16;;;;;;;7.60;5.63;;;25.30;99.90;;;;;;1043084;28;20044;-67
2022/08/16 01:27:50;;;;;;;4.85;4.13;;;25.40;99.90;;;;;;1043228;28;20639;-67
2022/08/16 01:28:24;;;;;;;5.60;5.10;;;25.40;99.90;;;;;;1043470;28;20025;-66
2022/08/16 01:28:57;;;;;;;5.38;4.88;;;25.40;99.90;;;;;;1043260;28;20029;-66
2022/08/16 01:29:40;;;;;;;5.45;4.93;;;25.40;99.90;;;;;;1043047;28;20009;-66
2022/08/16 01:30:19;;;;;;;5.53;5.03;;;25.30;99.90;;;;;;1043199;28;20066;-66
2022/08/16 01:30:55;;;;;;;5.13;4.32;;;25.30;99.90;;;;;;1043083;28;20017;-66
2022/08/16 01:31:26;;;;;;;5.63;5.13;;;25.30;99.90;;;;;;1042864;28;20066;-66
2022/08/16 01:31:57;;;;;;;5.60;4.78;;;25.30;99.90;;;;;;1043136;28;20017;-66
2022/08/16 01:32:30;;;;;;;5.33;4.83;;;25.30;99.90;;;;;;1043343;28;20226;-67
2022/08/16 01:33:03;;;;;;;6.13;5.53;;;25.30;99.90;;;;;;1043213;28;20020;-67
2022/08/16 01:33:34;;;;;;;5.97;5.25;;;25.30;99.90;;;;;;1043051;28;20028;-67
2022/08/16 01:34:04;;;;;;;5.23;4.77;;;25.30;99.90;;;;;;1043235;28;20020;-66
2022/08/16 01:34:35;;;;;;;6.53;5.50;;;25.30;99.90;;;;;;1043325;28;20017;-67
2022/08/16 01:35:21;;;;;;;5.87;4.63;;;25.30;99.90;;;;;;1043169;28;20093;-67
2022/08/16 01:35:58;;;;;;;6.97;5.32;;;25.30;99.90;;;;;;1042843;28;20366;-66
2022/08/16 01:36:30;;;;;;;5.05;4.60;;;25.30;99.90;;;;;;1043311;28;20021;-66
2022/08/16 01:37:08;;;;;;;5.93;5.43;;;25.30;99.90;;;;;;1043076;28;20027;-66
2022/08/16 01:37:47;;;;;;;5.78;5.22;;;25.30;99.90;;;;;;1043236;28;20032;-65
2022/08/16 01:38:19;;;;;;;5.47;4.97;;;25.20;99.90;;;;;;1042942;28;20115;-65
2022/08/16 01:38:50;;;;;;;5.10;4.57;;;25.20;99.90;;;;;;1042616;28;20015;-65
2022/08/16 01:39:21;;;;;;;5.33;4.83;;;25.30;99.90;;;;;;1041152;28;20017;-66
2022/08/16 01:39:51;;;;;;;5.63;5.10;;;25.20;99.90;;;;;;1042759;28;20033;-65
2022/08/16 01:40:26;;;;;;;6.10;4.87;;;25.20;99.90;;;;;;1043344;28;20089;-65
2022/08/16 01:41:04;;;;;;;6.20;4.80;;;25.20;99.90;;;;;;1043080;28;20100;-65
2022/08/16 01:41:34;;;;;;;6.30;5.72;;;25.30;99.90;;;;;;1043360;28;20012;-66
2022/08/16 01:42:10;;;;;;;5.50;5.00;;;25.20;99.90;;;;;;1043038;28;20384;-65
2022/08/16 01:42:41;;;;;;;5.18;4.78;;;25.20;99.90;;;;;;1043313;28;20009;-67
2022/08/16 01:43:12;;;;;;;5.25;4.72;;;25.20;99.90;;;;;;1042878;28;20029;-65
2022/08/16 01:43:44;;;;;;;5.70;5.20;;;25.20;99.90;;;;;;1043242;28;20044;-65
2022/08/16 01:44:15;;;;;;;4.88;4.47;;;25.30;99.90;;;;;;1039566;28;20010;-66
2022/08/16 01:44:45;;;;;;;5.70;4.90;;;25.20;99.90;;;;;;1039011;28;20014;-65
2022/08/16 01:45:18;;;;;;;6.90;4.50;;;25.20;99.90;;;;;;1038609;28;20025;-66
2022/08/16 01:45:53;;;;;;;4.75;4.35;;;25.20;99.90;;;;;;1038706;28;20024;-67
2022/08/16 01:46:31;;;;;;;6.55;5.55;;;25.20;99.90;;;;;;1034861;28;20009;-67
2022/08/16 01:47:02;;;;;;;6.38;5.35;;;25.20;99.90;;;;;;1039890;28;20477;-65
2022/08/16 01:47:33;;;;;;;5.70;5.20;;;25.20;99.90;;;;;;1042786;28;20567;-66
2022/08/16 01:48:04;;;;;;;5.63;5.13;;;25.20;99.90;;;;;;1042931;28;20160;-68
2022/08/16 01:48:35;;;;;;;5.68;5.18;;;25.20;99.90;;;;;;1043155;28;20009;-66
2022/08/16 01:49:17;;;;;;;5.27;4.57;;;25.20;99.90;;;;;;1043165;28;20005;-65
2022/08/16 01:49:48;;;;;;;6.10;5.05;;;25.20;99.90;;;;;;1043002;28;20487;-65
2022/08/16 01:50:19;;;;;;;5.67;5.10;;;25.20;99.90;;;;;;1043332;28;20373;-66
2022/08/16 01:50:51;;;;;;;5.38;4.88;;;25.20;99.90;;;;;;1042981;28;20011;-66
2022/08/16 01:51:24;;;;;;;5.70;5.20;;;25.20;99.90;;;;;;1043178;28;20009;-66
2022/08/16 01:51:58;;;;;;;5.57;5.07;;;25.20;99.90;;;;;;1043171;28;20596;-66
2022/08/16 01:52:28;;;;;;;7.25;5.32;;;25.20;99.90;;;;;;1043212;28;20108;-66
2022/08/16 01:52:59;;;;;;;6.10;5.50;;;25.20;99.90;;;;;;1043061;28;20412;-66
2022/08/16 01:53:30;;;;;;;5.63;5.10;;;25.20;99.90;;;;;;1043179;28;20714;-66
2022/08/16 01:54:01;;;;;;;5.05;4.63;;;25.20;99.90;;;;;;1043159;28;20024;-66
2022/08/16 01:54:32;;;;;;;5.25;4.75;;;25.20;99.90;;;;;;1043079;28;20397;-66
2022/08/16 01:55:04;;;;;;;5.28;4.78;;;25.20;99.90;;;;;;1043163;28;20498;-66
2022/08/16 01:55:35;;;;;;;5.50;4.57;;;25.20;99.90;;;;;;1043106;28;20482;-66
2022/08/16 01:56:06;;;;;;;5.80;5.30;;;25.20;99.90;;;;;;1043070;28;20636;-66
2022/08/16 01:56:37;;;;;;;6.40;4.97;;;25.20;99.90;;;;;;1043386;28;20055;-67
2022/08/16 01:57:08;;;;;;;5.57;5.07;;;25.20;99.90;;;;;;1043005;28;20052;-66
2022/08/16 01:57:38;;;;;;;6.20;5.57;;;25.20;99.90;;;;;;1043148;28;20027;-67
2022/08/16 01:58:09;;;;;;;4.90;4.50;;;25.20;99.90;;;;;;1043081;28;20025;-66
2022/08/16 01:58:40;;;;;;;5.88;5.10;;;25.20;99.90;;;;;;1043221;28;20476;-66
2022/08/16 01:59:12;;;;;;;5.40;4.90;;;25.20;99.90;;;;;;1042636;28;20564;-66
2022/08/16 01:59:43;;;;;;;5.22;4.70;;;25.20;99.90;;;;;;1042831;28;20071;-66
2022/08/16 02:00:14;;;;;;;5.67;4.80;;;25.20;99.90;;;;;;1042838;28;20251;-66
2022/08/16 02:00:46;;;;;;;5.93;5.35;;;25.20;99.90;;;;;;1042680;28;20017;-66
2022/08/16 02:01:17;;;;;;;5.68;5.03;;;25.20;99.90;;;;;;1043261;28;20048;-65
2022/08/16 02:01:49;;;;;;;5.27;4.77;;;25.20;99.90;;;;;;1043029;28;20013;-65
2022/08/16 02:02:22;;;;;;;5.15;4.57;;;25.10;99.90;;;;;;1043208;28;20028;-66
2022/08/16 02:02:52;;;;;;;5.40;4.90;;;25.10;99.90;;;;;;1043160;28;20234;-65
2022/08/16 02:03:23;;;;;;;4.93;4.53;;;25.20;99.90;;;;;;1043178;28;20040;-67
2022/08/16 02:03:55;;;;;;;6.00;5.50;;;25.10;99.90;;;;;;1043021;28;20029;-65
2022/08/16 02:04:26;;;;;;;5.30;4.80;;;25.10;99.90;;;;;;1043275;28;20025;-65
2022/08/16 02:04:58;;;;;;;4.82;4.43;;;25.10;99.90;;;;;;1042564;28;20021;-66
2022/08/16 02:05:29;;;;;;;6.45;4.57;;;25.10;99.90;;;;;;1042817;28;20078;-66
2022/08/16 02:06:00;;;;;;;5.43;5.03;;;25.10;99.90;;;;;;1042800;28;20340;-65
2022/08/16 02:06:30;;;;;;;5.07;4.57;;;25.10;99.90;;;;;;1042808;28;20024;-65
2022/08/16 02:07:07;;;;;;;5.43;4.93;;;25.10;99.90;;;;;;1043155;28;20746;-65
2022/08/16 02:07:37;;;;;;;5.70;4.60;;;25.10;99.90;;;;;;1043287;28;20055;-66
2022/08/16 02:08:08;;;;;;;6.07;5.57;;;25.10;99.90;;;;;;1043020;28;20067;-66
2022/08/16 02:08:39;;;;;;;5.20;4.70;;;25.10;99.90;;;;;;1043109;28;20079;-66
2022/08/16 02:09:11;;;;;;;6.30;5.60;;;25.10;99.90;;;;;;1043065;28;20082;-65
2022/08/16 02:09:41;;;;;;;5.55;5.10;;;25.10;99.90;;;;;;1043145;28;20031;-67
2022/08/16 02:10:12;;;;;;;6.03;5.17;;;25.10;99.90;;;;;;1043077;28;20032;-66
2022/08/16 02:10:43;;;;;;;5.97;5.38;;;25.10;99.90;;;;;;1042902;28;20017;-66
2022/08/16 02:11:15;;;;;;;5.13;4.63;;;25.00;99.90;;;;;;1043120;28;20017;-65
2022/08/16 02:11:48;;;;;;;5.40;4.93;;;25.00;99.90;;;;;;1043014;28;20559;-66
2022/08/16 02:12:19;;;;;;;5.63;5.03;;;25.00;99.90;;;;;;1042939;28;20025;-66
2022/08/16 02:12:49;;;;;;;5.77;5.10;;;25.00;99.90;;;;;;1042406;28;20116;-65
2022/08/16 02:13:20;;;;;;;5.17;4.50;;;25.10;99.90;;;;;;1042877;28;20184;-66
2022/08/16 02:13:51;;;;;;;6.07;4.80;;;25.10;99.90;;;;;;1042654;28;20017;-66
2022/08/16 02:14:25;;;;;;;4.90;4.50;;;25.10;99.90;;;;;;1043007;28;20650;-67
2022/08/16 02:14:56;;;;;;;5.75;5.25;;;25.10;99.90;;;;;;1042772;28;20048;-67
2022/08/16 02:15:29;;;;;;;6.18;4.75;;;25.10;99.90;;;;;;1042701;28;20387;-67
2022/08/16 02:16:00;;;;;;;5.20;4.80;;;25.10;99.90;;;;;;1042762;28;20613;-67
2022/08/16 02:16:31;;;;;;;5.90;5.33;;;25.10;99.90;;;;;;1042735;28;20384;-66
2022/08/16 02:17:04;;;;;;;6.30;5.70;;;25.10;99.90;;;;;;1042218;28;20025;-67
2022/08/16 02:17:35;;;;;;;5.50;5.00;;;25.10;99.90;;;;;;1038985;28;20104;-67
2022/08/16 02:18:06;;;;;;;6.63;5.20;;;25.10;99.90;;;;;;1038942;28;20025;-67
2022/08/16 02:18:37;;;;;;;5.55;5.05;;;25.00;99.90;;;;;;1038896;28;20030;-67
2022/08/16 02:19:09;;;;;;;5.68;5.18;;;25.00;99.90;;;;;;1038890;28;20021;-65
2022/08/16 02:19:42;;;;;;;6.63;5.32;;;25.10;99.90;;;;;;1038980;28;20437;-65
2022/08/16 02:20:14;;;;;;;5.43;4.93;;;25.10;99.90;;;;;;1038773;28;20916;-65
2022/08/16 02:20:48;;;;;;;5.28;4.75;;;25.00;99.90;;;;;;1038604;28;20476;-64
2022/08/16 02:21:19;;;;;;;5.85;4.57;;;25.10;99.90;;;;;;1038670;28;20028;-66
2022/08/16 02:21:51;;;;;;;5.03;4.63;;;25.00;99.90;;;;;;1038549;28;20025;-65
2022/08/16 02:22:23;;;;;;;5.50;5.00;;;25.00;99.90;;;;;;1039133;28;20139;-67
2022/08/16 02:22:56;;;;;;;5.90;5.30;;;25.00;99.90;;;;;;1038814;28;20511;-66
2022/08/16 02:23:27;;;;;;;5.88;5.00;;;25.00;99.90;;;;;;1038993;28;20373;-66
2022/08/16 02:23:57;;;;;;;5.13;4.57;;;25.00;99.90;;;;;;1038926;28;20616;-66
2022/08/16 02:24:28;;;;;;;5.77;5.27;;;25.00;99.90;;;;;;1038960;28;20734;-66
2022/08/16 02:24:58;;;;;;;6.07;5.47;;;25.00;99.90;;;;;;1038932;28;20029;-66
2022/08/16 02:25:29;;;;;;;5.40;4.90;;;25.00;99.90;;;;;;1039044;28;20603;-67
2022/08/16 02:26:00;;;;;;;4.97;4.53;;;25.00;99.90;;;;;;1038420;28;20140;-66
2022/08/16 02:26:30;;;;;;;5.40;4.90;;;25.00;99.90;;;;;;1038863;28;20496;-69
2022/08/16 02:27:01;;;;;;;5.30;4.80;;;25.00;99.90;;;;;;1038480;28;20037;-66
2022/08/16 02:27:31;;;;;;;5.57;4.93;;;24.90;99.90;;;;;;1038640;28;20684;-67
2022/08/16 02:28:02;;;;;;;5.50;5.00;;;25.00;99.90;;;;;;1038873;28;20071;-66
2022/08/16 02:28:33;;;;;;;6.03;5.40;;;24.90;99.90;;;;;;1039096;28;20643;-66
2022/08/16 02:29:04;;;;;;;6.35;5.43;;;24.90;99.90;;;;;;1038815;28;20256;-66
2022/08/16 02:29:35;;;;;;;6.53;5.10;;;25.00;99.90;;;;;;1039016;28;20025;-65
2022/08/16 02:30:11;;;;;;;5.00;4.60;;;25.00;99.90;;;;;;1038419;28;20634;-66
2022/08/16 02:30:41;;;;;;;4.97;4.20;;;25.00;99.90;;;;;;1038595;28;20029;-66
2022/08/16 02:31:13;;;;;;;5.27;4.73;;;25.00;99.90;;;;;;1038395;28;20017;-65
2022/08/16 02:31:45;;;;;;;5.80;5.30;;;25.00;99.90;;;;;;1038526;28;20018;-66
2022/08/16 02:32:17;;;;;;;5.22;4.75;;;24.90;99.90;;;;;;1038850;28;20029;-66
2022/08/16 02:32:47;;;;;;;5.32;4.82;;;24.90;99.90;;;;;;1038881;28;20768;-66
2022/08/16 02:33:20;;;;;;;5.80;5.03;;;24.90;99.90;;;;;;1039059;28;20738;-66
2022/08/16 02:33:51;;;;;;;5.50;4.95;;;24.90;99.90;;;;;;1038885;28;20469;-65
2022/08/16 02:34:21;;;;;;;5.50;5.00;;;24.90;99.90;;;;;;1038923;28;20457;-67
2022/08/16 02:34:52;;;;;;;5.10;4.60;;;24.90;99.90;;;;;;1038744;28;20143;-66
2022/08/16 02:35:23;;;;;;;5.80;5.20;;;24.90;99.90;;;;;;1038980;28;20116;-66
2022/08/16 02:35:54;;;;;;;5.70;5.07;;;24.90;99.90;;;;;;1038782;28;20079;-66
2022/08/16 02:36:25;;;;;;;6.37;5.23;;;24.90;99.90;;;;;;1039002;28;20095;-66
2022/08/16 02:36:55;;;;;;;5.37;4.87;;;24.90;99.90;;;;;;1038714;28;20022;-65
2022/08/16 02:37:26;;;;;;;5.20;4.73;;;24.90;99.90;;;;;;1039095;28;20021;-66
2022/08/16 02:37:57;;;;;;;5.77;5.17;;;24.90;99.90;;;;;;1038823;28;20380;-66
2022/08/16 02:38:28;;;;;;;5.65;5.13;;;24.90;99.90;;;;;;1039163;28;20504;-65
2022/08/16 02:39:00;;;;;;;6.45;5.20;;;24.90;99.90;;;;;;1038764;28;20449;-65
2022/08/16 02:39:30;;;;;;;6.00;5.40;;;24.90;99.90;;;;;;1042213;28;20052;-65
2022/08/16 02:40:01;;;;;;;6.13;5.53;;;24.90;99.90;;;;;;1042889;28;20234;-66
2022/08/16 02:40:32;;;;;;;5.87;5.33;;;24.90;99.90;;;;;;1043233;28;20462;-69
2022/08/16 02:41:03;;;;;;;6.10;5.50;;;24.90;99.90;;;;;;1042667;28;20021;-65
2022/08/16 02:41:35;;;;;;;6.50;5.10;;;24.90;99.90;;;;;;1043306;28;20070;-65
2022/08/16 02:42:06;;;;;;;5.20;4.80;;;24.80;99.90;;;;;;1042861;28;20016;-65
2022/08/16 02:42:36;;;;;;;5.80;4.80;;;24.90;99.90;;;;;;1043149;28;20372;-66
2022/08/16 02:43:07;;;;;;;5.40;4.90;;;24.90;99.90;;;;;;1042751;28;20020;-66
2022/08/16 02:43:38;;;;;;;4.87;4.37;;;24.90;99.90;;;;;;1043307;28;20001;-66
2022/08/16 02:44:11;;;;;;;5.20;4.73;;;24.80;99.90;;;;;;1042781;28;20048;-66
2022/08/16 02:44:41;;;;;;;5.57;5.07;;;24.90;99.90;;;;;;1043102;28;20013;-66
2022/08/16 02:45:13;;;;;;;5.87;5.27;;;24.80;99.90;;;;;;1042871;28;20028;-66
2022/08/16 02:45:43;;;;;;;6.15;4.32;;;24.80;99.90;;;;;;1042968;28;20669;-66
2022/08/16 02:46:14;;;;;;;6.23;5.63;;;24.80;99.90;;;;;;1042996;28;20742;-67
2022/08/16 02:46:45;;;;;;;6.20;4.80;;;24.90;99.90;;;;;;1042756;28;20467;-67
2022/08/16 02:47:15;;;;;;;6.97;4.82;;;24.80;99.90;;;;;;1042104;28;20021;-67
2022/08/16 02:47:46;;;;;;;5.77;5.27;;;24.90;99.90;;;;;;1042361;28;20013;-67
2022/08/16 02:48:17;;;;;;;5.10;4.70;;;24.80;99.90;;;;;;1042681;28;20009;-67
2022/08/16 02:48:47;;;;;;;5.67;4.93;;;24.80;99.90;;;;;;1042702;28;20141;-67
2022/08/16 02:49:18;;;;;;;5.27;4.70;;;24.80;99.90;;;;;;1043151;28;20580;-67